Huvudsida
METAR-TAF:

METAR-TAF

Flygplatser :

Abu Dhabi Bateen Airport

Abu Dhabi Bateen, Förenade Arabemiraten

latitud: 24-26N, longitud: 054-28E, höjd: 5 m

Aktuellt väderrapport

Denna rapport gjordes för 36 minuter sedan, klockan 19:00 UTC
Vind 6 kt från ost/nordost, varierande mellan nord/nordost och ost
Temperatur 24°C
Fuktighet 47%
Tryck 1014 hPa
Sikt 10 km eller mer
Inga moln under 1 500 m eller inga cumulonimbus

METAR: OMAD 111900Z 07006KT 030V100 CAVOK 24/12 Q1014 NOSIG

Tid: 23:36 (19:36 UTC)

Väderprognos

Denna rapport gjordes för 2 timmar och 36 minuter sedan, klockan 17:00 UTC
Prognos gäller från 11 kl. 18 UTC till 13 kl. 00 UTC
Vind 7 kt från ost
Sikt 10 km eller mer
Inga moln under 1 500 m eller inga cumulonimbus
Blir
från 12 kl. 08 UTC till 12 kl. 10 UTC
Vind 10 kt från nord
Blir
från 12 kl. 17 UTC till 12 kl. 19 UTC
Vind 9 kt från ost

TAF: OMAD 111700Z 1118/1300 08007KT CAVOK BECMG 1208/1210 36010KT BECMG 1217/1219 10009KT

Aktuella väderrapporter och prognoser från 4000 flygplatser (METAR- och TAF-rapporter).

De tillgängliga stationerna syns som gula och röda prickar på kartan.

För musen över prickarna för att se namnen på stationerna.

Klicka sedan för att få väderrapporter och prognoser.

För att ändra kartan: Klicka på de gröna knapparna med ett svart kors på för att zooma in; den gröna knappen med ett streck på för att zooma ut; eller på de gröna pilarna för angränsande kartor.


METAR-TAF: